Time;durP1;ratioP1;P1;durP2;ratioP2;P2;SDS_P1;SDS_P2;PMS_P1;PMS_P2;Temp;Humidity;BMP_temperature;BMP_pressure;BME280_temperature;BME280_humidity;BME280_pressure;Samples;Min_cycle;Max_cycle;Signal;HPM_P1;HPM_P2
2023/09/30 00:01:55;;;;;;;2.88;2.67;;;;;;;18.19;100.00;100876.34;5062361;28;20088;-84
2023/09/30 00:04:20;;;;;;;0.75;0.75;;;;;;;17.84;100.00;100801.94;5058648;28;20048;-83
2023/09/30 00:06:46;;;;;;;1.95;1.33;;;;;;;18.09;100.00;100843.81;5080791;28;20059;-84
2023/09/30 00:09:13;;;;;;;4.00;2.22;;;;;;;17.77;100.00;100759.59;5041915;28;20060;-81
2023/09/30 00:11:38;;;;;;;1.10;0.98;;;;;;;17.37;100.00;100710.13;5060763;28;20494;-82
2023/09/30 00:14:04;;;;;;;2.78;1.67;;;;;;;17.82;100.00;100758.63;5061108;28;20048;-83
2023/09/30 00:16:30;;;;;;;2.08;1.73;;;;;;;18.21;100.00;100834.69;5055685;28;20052;-81
2023/09/30 00:18:58;;;;;;;1.15;1.05;;;;;;;18.12;100.00;100835.78;5055404;28;20052;-81
2023/09/30 00:21:24;;;;;;;1.45;0.85;;;;;;;18.06;100.00;100844.78;5059992;28;20033;-81
2023/09/30 00:23:49;;;;;;;0.57;0.57;;;;;;;18.14;100.00;100863.16;5058349;28;20456;-83
2023/09/30 00:26:15;;;;;;;0.40;0.40;;;;;;;17.94;100.00;100831.81;5060454;28;20089;-81
2023/09/30 00:28:40;;;;;;;1.58;1.48;;;;;;;17.45;100.00;100756.81;5061028;28;20099;-82
2023/09/30 00:31:09;;;;;;;1.60;1.50;;;;;;;17.99;100.00;100864.41;5057901;28;20048;-80
2023/09/30 00:33:35;;;;;;;2.28;1.50;;;;;;;17.36;100.00;100751.69;5051205;28;20028;-83
2023/09/30 00:36:08;;;;;;;1.27;0.88;;;;;;;17.39;100.00;100771.97;5040790;28;20481;-83
2023/09/30 00:38:34;;;;;;;1.75;1.15;;;;;;;17.45;100.00;100775.38;5057033;28;20048;-81
2023/09/30 00:41:00;;;;;;;1.30;1.00;;;;;;;17.90;100.00;100846.91;5043973;28;20051;-81
2023/09/30 00:43:26;;;;;;;1.02;0.65;;;;;;;17.84;100.00;100846.19;5060013;28;20451;-79
2023/09/30 00:46:01;;;;;;;1.67;1.58;;;;;;;18.04;100.00;100872.28;5057700;28;20032;-81
2023/09/30 00:48:28;;;;;;;5.65;1.88;;;;;;;17.82;100.00;100848.88;5066316;28;20040;-80
2023/09/30 00:50:55;;;;;;;2.47;1.08;;;;;;;17.72;100.00;100826.97;5060014;28;20136;-80
2023/09/30 00:53:21;;;;;;;2.00;1.77;;;;;;;17.29;100.00;100755.41;5062069;28;20127;-79
2023/09/30 00:55:48;;;;;;;1.70;1.38;;;;;;;17.35;100.00;100751.72;5057363;28;20053;-78
2023/09/30 00:58:14;;;;;;;2.28;1.80;;;;;;;17.67;100.00;100818.19;5050793;28;20051;-79
2023/09/30 01:00:40;;;;;;;11.02;3.30;;;;;;;17.73;100.00;100839.31;5042369;28;20865;-79
2023/09/30 01:03:06;;;;;;;1.08;0.93;;;;;;;17.35;100.00;100770.28;5043281;28;20048;-82
2023/09/30 01:05:32;;;;;;;2.75;2.22;;;;;;;17.21;100.00;100744.09;5056064;28;20737;-80
2023/09/30 01:07:57;;;;;;;1.30;1.05;;;;;;;17.70;100.00;100839.38;5034115;28;20062;-83
2023/09/30 01:10:23;;;;;;;1.73;0.90;;;;;;;17.64;100.00;100820.06;5062520;28;20048;-79
2023/09/30 01:12:48;;;;;;;1.10;1.05;;;;;;;17.77;100.00;100849.84;5059184;28;20124;-82
2023/09/30 01:15:14;;;;;;;1.58;1.48;;;;;;;17.63;100.00;100819.22;5057408;28;20481;-80
2023/09/30 01:17:39;;;;;;;2.25;2.10;;;;;;;17.18;100.00;100750.31;5054067;28;20071;-79
2023/09/30 01:20:06;;;;;;;1.67;1.48;;;;;;;17.24;100.00;100784.69;5055031;28;20045;-80
2023/09/30 01:22:34;;;;;;;0.60;0.60;;;;;;;17.59;100.00;100844.06;5061055;28;20048;-81
2023/09/30 01:24:59;;;;;;;1.40;1.23;;;;;;;17.41;100.00;100794.03;5057001;28;20098;-81
2023/09/30 01:27:25;;;;;;;2.38;1.23;;;;;;;16.96;100.00;100731.38;5059172;28;20747;-83
2023/09/30 01:29:51;;;;;;;1.23;0.95;;;;;;;17.57;100.00;100840.56;5058009;28;20065;-82
2023/09/30 01:32:16;;;;;;;1.92;1.35;;;;;;;16.96;100.00;100723.41;5055514;28;20846;-81
2023/09/30 01:34:42;;;;;;;1.33;1.23;;;;;;;17.16;100.00;100762.78;5060283;28;20037;-82
2023/09/30 01:37:07;;;;;;;0.45;0.25;;;;;;;17.59;100.00;100824.63;5056346;28;20127;-82
2023/09/30 01:39:33;;;;;;;1.90;1.77;;;;;;;17.60;100.00;100821.03;5060572;28;20032;-83
2023/09/30 01:41:59;;;;;;;1.75;1.33;;;;;;;17.17;100.00;100761.84;5052904;28;20582;-84
2023/09/30 01:44:25;;;;;;;2.20;1.90;;;;;;;17.11;100.00;100740.75;5054674;28;20076;-82
2023/09/30 01:46:51;;;;;;;1.08;0.88;;;;;;;17.84;100.00;100847.06;5059640;28;20059;-82
2023/09/30 01:49:18;;;;;;;0.73;0.70;;;;;;;17.21;100.00;100750.28;5034486;28;20084;-82
2023/09/30 01:51:44;;;;;;;1.02;0.75;;;;;;;17.33;100.00;100778.31;5047802;28;20179;-82
2023/09/30 01:54:10;;;;;;;1.05;0.95;;;;;;;17.77;100.00;100852.50;5056025;28;20120;-82
2023/09/30 01:56:36;;;;;;;1.10;0.82;;;;;;;17.65;100.00;100837.72;5037019;28;20056;-82
2023/09/30 01:59:01;;;;;;;1.75;1.27;;;;;;;17.24;100.00;100752.84;5063340;28;20052;-81
2023/09/30 02:01:27;;;;;;;0.65;0.65;;;;;;;17.85;100.00;100851.47;5058047;28;20056;-82
2023/09/30 02:03:53;;;;;;;2.28;1.52;;;;;;;17.64;100.00;100822.72;5060635;28;20105;-80
2023/09/30 02:06:18;;;;;;;1.90;1.70;;;;;;;17.22;100.00;100741.41;5061486;28;20044;-81
2023/09/30 02:08:44;;;;;;;2.00;1.50;;;;;;;17.70;100.00;100827.91;5059868;28;20072;-80
2023/09/30 02:11:10;;;;;;;0.82;0.82;;;;;;;17.67;100.00;100810.25;5054662;28;20045;-81
2023/09/30 02:13:36;;;;;;;1.27;1.17;;;;;;;17.78;100.00;100822.41;5062008;28;20587;-79
2023/09/30 02:16:01;;;;;;;0.98;0.88;;;;;;;17.24;100.00;100741.38;5052672;28;20049;-82
2023/09/30 02:18:27;;;;;;;2.10;1.73;;;;;;;17.67;100.00;100841.22;5032346;28;20057;-81
2023/09/30 02:20:53;;;;;;;1.77;1.65;;;;;;;17.21;100.00;100800.66;5029932;28;20791;-80
2023/09/30 02:23:18;;;;;;;1.63;1.02;;;;;;;17.82;100.00;100848.03;5048736;28;20045;-82
2023/09/30 02:25:47;;;;;;;3.55;2.08;;;;;;;17.82;100.00;100862.16;5038807;28;20064;-82
2023/09/30 02:28:14;;;;;;;1.58;1.02;;;;;;;17.69;100.00;100832.31;5057350;28;20048;-82
2023/09/30 02:30:40;;;;;;;10.88;3.72;;;;;;;17.29;100.00;100771.31;5050977;28;20673;-81
2023/09/30 02:33:07;;;;;;;3.00;2.00;;;;;;;17.11;100.00;100729.28;5055413;28;20029;-81
2023/09/30 02:35:32;;;;;;;1.33;1.25;;;;;;;17.00;100.00;100719.78;5055249;28;20600;-82
2023/09/30 02:37:58;;;;;;;0.50;0.47;;;;;;;17.26;100.00;100766.09;5066975;28;20136;-80
2023/09/30 02:40:25;;;;;;;0.65;0.55;;;;;;;17.14;100.00;100745.13;5047863;28;20060;-81
2023/09/30 02:42:51;;;;;;;3.10;1.52;;;;;;;17.68;100.00;100819.09;5054383;28;20044;-80
2023/09/30 02:45:17;;;;;;;2.67;1.17;;;;;;;17.58;100.00;100809.59;5062144;28;20736;-83
2023/09/30 02:47:43;;;;;;;1.85;1.55;;;;;;;16.20;100.00;100586.31;5064018;28;20049;-81
2023/09/30 02:50:13;;;;;;;1.35;1.25;;;;;;;17.71;100.00;100826.97;5058945;28;20079;-83
2023/09/30 02:52:40;;;;;;;0.40;0.40;;;;;;;17.61;100.00;100806.88;5058026;28;20048;-81
2023/09/30 02:55:09;;;;;;;1.17;1.10;;;;;;;17.09;100.00;100722.25;5055438;28;20045;-82
2023/09/30 02:57:35;;;;;;;1.08;1.00;;;;;;;17.48;100.00;100783.25;5055094;28;20546;-83
2023/09/30 03:00:12;;;;;;;1.48;1.02;;;;;;;17.25;100.00;100746.63;5056481;28;20059;-84
2023/09/30 03:02:38;;;;;;;0.73;0.65;;;;;;;17.76;100.00;100837.50;5045323;28;20037;-83
2023/09/30 03:05:03;;;;;;;1.38;1.10;;;;;;;17.48;100.00;100795.66;5058925;28;20052;-81
2023/09/30 03:07:29;;;;;;;1.55;1.45;;;;;;;17.56;100.00;100814.94;5056671;28;20141;-83
2023/09/30 03:09:55;;;;;;;2.20;2.00;;;;;;;17.81;100.00;100841.81;5062457;28;20091;-83
2023/09/30 03:12:20;;;;;;;1.40;1.10;;;;;;;17.86;100.00;100832.00;5042716;28;20103;-82
2023/09/30 03:14:46;;;;;;;1.80;1.65;;;;;;;17.79;100.00;100840.94;5058835;28;20048;-83
2023/09/30 03:17:12;;;;;;;0.75;0.63;;;;;;;17.22;100.00;100738.75;5060006;28;20843;-82
2023/09/30 03:19:38;;;;;;;5.00;3.80;;;;;;;17.69;100.00;100850.91;5058181;28;20296;-82
2023/09/30 03:22:04;;;;;;;2.97;1.08;;;;;;;17.18;100.00;100782.16;5057719;28;20491;-83
2023/09/30 03:24:30;;;;;;;2.72;1.95;;;;;;;17.24;100.00;100789.13;5065399;28;20451;-82
2023/09/30 03:26:57;;;;;;;0.80;0.80;;;;;;;17.44;100.00;100845.28;5052051;28;20102;-84
2023/09/30 03:29:23;;;;;;;2.13;1.77;;;;;;;17.38;100.00;100826.81;5060674;28;20053;-82
2023/09/30 03:31:48;;;;;;;1.02;0.93;;;;;;;16.98;100.00;100748.13;5061952;28;20048;-84
2023/09/30 03:34:16;;;;;;;1.80;1.65;;;;;;;17.57;100.00;100855.63;5054051;28;20072;-84
2023/09/30 03:36:42;;;;;;;1.08;1.02;;;;;;;17.16;100.00;100814.91;5063796;28;20353;-84
2023/09/30 03:39:08;;;;;;;0.95;0.90;;;;;;;17.21;100.00;100821.88;5056519;28;20779;-83
2023/09/30 03:41:36;;;;;;;4.50;1.38;;;;;;;17.03;100.00;100796.59;5053978;28;20123;-84
2023/09/30 03:44:02;;;;;;;1.30;1.02;;;;;;;17.07;100.00;100808.03;5041789;28;20105;-81
2023/09/30 03:46:28;;;;;;;0.85;0.65;;;;;;;16.52;100.00;100722.50;5064275;28;20047;-80
2023/09/30 03:48:53;;;;;;;2.63;2.42;;;;;;;17.21;100.00;100843.09;5056682;28;20048;-81
2023/09/30 03:51:19;;;;;;;0.98;0.80;;;;;;;15.31;100.00;100536.81;5063216;28;20032;-82
2023/09/30 03:53:45;;;;;;;2.05;1.55;;;;;;;16.49;100.00;100716.41;5063169;28;20087;-81
2023/09/30 03:56:11;;;;;;;2.67;1.90;;;;;;;16.53;100.00;100728.66;5052172;28;20048;-82
2023/09/30 03:58:41;;;;;;;0.68;0.55;;;;;;;16.48;100.00;100747.28;5058804;28;20457;-82
2023/09/30 04:01:07;;;;;;;1.45;1.13;;;;;;;16.91;100.00;100811.91;5059860;28;20456;-82
2023/09/30 04:03:34;;;;;;;0.98;0.75;;;;;;;16.96;100.00;100818.84;5060652;28;20036;-82
2023/09/30 04:06:02;;;;;;;2.10;1.73;;;;;;;17.06;100.00;100831.00;5061535;28;20020;-83
2023/09/30 04:08:29;;;;;;;3.22;1.55;;;;;;;17.05;100.00;100831.06;5055181;28;20041;-83
2023/09/30 04:10:55;;;;;;;2.80;2.25;;;;;;;16.38;100.00;100724.53;5058828;28;20777;-82
2023/09/30 04:13:21;;;;;;;2.38;0.93;;;;;;;16.96;100.00;100828.59;5059881;28;20048;-83
2023/09/30 04:15:46;;;;;;;1.90;1.75;;;;;;;16.40;100.00;100749.22;5051685;28;20497;-83
2023/09/30 04:18:12;;;;;;;2.13;1.30;;;;;;;16.63;100.00;100776.16;5060358;28;20043;-83
2023/09/30 04:20:39;;;;;;;1.08;0.98;;;;;;;17.05;100.00;100857.56;5058740;28;20444;-81
2023/09/30 04:23:09;;;;;;;1.13;1.02;;;;;;;16.99;100.00;100832.03;5043895;28;20255;-80
2023/09/30 04:25:35;;;;;;;1.52;1.42;;;;;;;17.22;100.00;100863.41;5056639;28;20049;-77
2023/09/30 04:28:02;;;;;;;7.82;3.25;;;;;;;17.20;100.00;100859.03;5054794;28;20049;-76
2023/09/30 04:30:29;;;;;;;1.95;1.42;;;;;;;16.92;100.00;100838.34;5058783;28;20021;-77
2023/09/30 04:32:56;;;;;;;3.13;1.90;;;;;;;16.44;100.00;100745.63;5058088;28;20069;-76
2023/09/30 04:35:22;;;;;;;1.10;0.98;;;;;;;17.09;100.00;100857.47;5063990;28;20515;-77
2023/09/30 04:37:48;;;;;;;2.45;2.25;;;;;;;16.50;100.00;100768.47;5053273;28;20041;-80
2023/09/30 04:40:22;;;;;;;0.90;0.65;;;;;;;17.07;100.00;100851.34;5060007;28;20055;-76
2023/09/30 04:42:48;;;;;;;1.33;1.08;;;;;;;17.05;100.00;100857.56;5056082;28;20032;-76
2023/09/30 04:45:19;;;;;;;1.08;0.98;;;;;;;16.96;100.00;100866.56;5058166;28;20368;-77
2023/09/30 04:47:45;;;;;;;1.35;1.25;;;;;;;16.64;100.00;100775.25;5067436;28;20231;-76
2023/09/30 04:50:13;;;;;;;1.00;0.90;;;;;;;16.39;100.00;100747.50;5044796;28;20101;-76
2023/09/30 04:52:40;;;;;;;2.33;1.70;;;;;;;17.11;100.00;100869.81;5057057;28;20543;-78
2023/09/30 04:55:06;;;;;;;2.33;2.13;;;;;;;17.19;100.00;100874.06;5057818;28;20052;-76
2023/09/30 04:57:31;;;;;;;1.05;0.90;;;;;;;16.63;100.00;100765.56;5045267;28;20035;-77
2023/09/30 04:59:58;;;;;;;1.92;1.10;;;;;;;17.25;100.00;100879.25;5039311;28;20409;-79
2023/09/30 05:02:24;;;;;;;2.53;1.77;;;;;;;17.16;100.00;100860.00;5053251;28;20052;-79
2023/09/30 05:04:50;;;;;;;3.60;1.63;;;;;;;16.68;100.00;100768.13;5055353;28;20045;-78
2023/09/30 05:07:16;;;;;;;1.20;1.10;;;;;;;17.41;100.00;100882.47;5040428;28;20063;-78
2023/09/30 05:09:42;;;;;;;1.60;1.42;;;;;;;17.42;100.00;100867.41;5041124;28;20724;-79
2023/09/30 05:12:08;;;;;;;2.72;1.88;;;;;;;16.87;100.00;100777.47;5055918;28;20040;-78
2023/09/30 05:14:33;;;;;;;3.35;1.17;;;;;;;17.19;100.00;100847.56;5058632;28;20135;-79
2023/09/30 05:16:59;;;;;;;5.25;2.65;;;;;;;17.10;100.00;100797.38;5061623;28;20545;-80
2023/09/30 05:19:24;;;;;;;1.40;1.05;;;;;;;17.43;100.00;100846.16;5055441;28;20083;-77
